createdAt,value
2022-11-28T00:01:20.426Z,55.63
2022-11-28T00:03:47.943Z,55.62
2022-11-28T00:06:15.402Z,56.10
2022-11-28T00:08:43.003Z,57.67
2022-11-28T00:11:11.492Z,55.12
2022-11-28T00:13:38.943Z,55.51
2022-11-28T00:16:06.935Z,55.26
2022-11-28T00:18:34.550Z,55.58
2022-11-28T00:21:02.601Z,55.65
2022-11-28T00:23:30.370Z,55.90
2022-11-28T00:26:02.027Z,54.98
2022-11-28T00:28:29.327Z,54.52
2022-11-28T00:30:56.632Z,54.63
2022-11-28T00:33:24.204Z,54.73
2022-11-28T00:35:51.619Z,55.19
2022-11-28T00:38:18.836Z,55.14
2022-11-28T00:40:46.366Z,54.85
2022-11-28T00:43:13.551Z,54.54
2022-11-28T00:45:41.154Z,54.60
2022-11-28T00:48:08.645Z,54.62
2022-11-28T00:50:35.809Z,54.77
2022-11-28T00:53:03.029Z,54.64
2022-11-28T00:55:30.499Z,54.80
2022-11-28T00:57:57.727Z,54.74
2022-11-28T01:00:24.959Z,54.66
2022-11-28T01:02:52.502Z,54.87
2022-11-28T01:05:19.713Z,54.76
2022-11-28T01:07:47.003Z,54.58
2022-11-28T01:10:14.517Z,54.61
2022-11-28T01:12:41.777Z,54.64
2022-11-28T01:15:09.787Z,55.28
2022-11-28T01:17:37.321Z,54.83
2022-11-28T01:20:05.609Z,55.28
2022-11-28T01:22:32.768Z,56.50
2022-11-28T01:25:00.253Z,57.58
2022-11-28T01:27:27.505Z,56.04
2022-11-28T01:29:54.768Z,55.95
2022-11-28T01:32:22.217Z,57.25
2022-11-28T01:34:49.425Z,57.16
2022-11-28T01:37:16.628Z,57.53
2022-11-28T01:39:44.107Z,58.37
2022-11-28T01:42:18.135Z,57.17
2022-11-28T01:44:48.709Z,56.98
2022-11-28T01:47:17.068Z,58.52
2022-11-28T01:49:44.260Z,61.76
2022-11-28T01:52:13.548Z,58.08
2022-11-28T01:54:41.092Z,60.91
2022-11-28T01:57:09.233Z,60.99
2022-11-28T01:59:37.772Z,62.14
2022-11-28T02:02:05.571Z,59.79
2022-11-28T02:04:33.079Z,59.01
2022-11-28T02:07:00.256Z,58.00
2022-11-28T02:09:27.483Z,59.11
2022-11-28T02:12:13.855Z,58.08
2022-11-28T02:14:41.436Z,57.46
2022-11-28T02:17:24.513Z,58.67
2022-11-28T02:19:51.769Z,57.79
2022-11-28T02:22:28.897Z,57.15
2022-11-28T02:25:15.845Z,59.52
2022-11-28T02:27:56.418Z,63.27
2022-11-28T02:30:42.531Z,61.58
2022-11-28T02:33:10.116Z,61.14
2022-11-28T02:35:48.200Z,59.19
2022-11-28T02:38:24.427Z,59.51
2022-11-28T02:40:57.773Z,58.84
2022-11-28T02:43:31.768Z,59.00
2022-11-28T02:46:02.019Z,57.00
2022-11-28T02:48:36.482Z,59.18
2022-11-28T02:51:10.707Z,57.22
2022-11-28T02:53:38.254Z,57.10
2022-11-28T02:56:05.589Z,57.13
2022-11-28T02:58:32.795Z,56.75
2022-11-28T03:01:00.473Z,56.18
2022-11-28T03:03:41.746Z,57.76
2022-11-28T03:06:17.862Z,56.69
2022-11-28T03:08:48.108Z,55.90
2022-11-28T03:11:16.505Z,55.79
2022-11-28T03:13:51.176Z,55.24
2022-11-28T03:16:23.264Z,55.55
2022-11-28T03:19:02.982Z,54.97
2022-11-28T03:21:38.456Z,54.75
2022-11-28T03:24:20.681Z,54.71
2022-11-28T03:27:06.258Z,54.77
2022-11-28T03:29:41.058Z,55.07
2022-11-28T03:32:10.260Z,56.07
2022-11-28T03:34:38.512Z,55.78
2022-11-28T03:37:09.112Z,55.66
2022-11-28T03:39:38.452Z,54.84
2022-11-28T03:42:13.365Z,58.83
2022-11-28T03:44:48.460Z,56.30
2022-11-28T03:47:15.673Z,57.06
2022-11-28T03:49:44.452Z,59.78
2022-11-28T03:52:13.299Z,57.69
2022-11-28T03:54:42.904Z,57.20
2022-11-28T03:57:12.109Z,58.36
2022-11-28T03:59:43.635Z,57.07
2022-11-28T04:02:14.913Z,58.64
2022-11-28T04:04:48.424Z,57.46
2022-11-28T04:07:22.436Z,58.46
2022-11-28T04:09:51.135Z,56.52
2022-11-28T04:12:47.743Z,60.35
2022-11-28T04:15:20.879Z,59.77
2022-11-28T04:18:10.896Z,62.20
2022-11-28T04:21:14.155Z,59.02
2022-11-28T04:23:42.679Z,60.22
2022-11-28T04:26:29.164Z,58.55
2022-11-28T04:28:56.780Z,57.26
2022-11-28T04:31:24.846Z,58.69
2022-11-28T04:33:53.228Z,59.16
2022-11-28T04:36:20.455Z,62.10
2022-11-28T04:38:56.520Z,59.70
2022-11-28T04:41:28.833Z,60.14
2022-11-28T04:44:00.795Z,59.65
2022-11-28T04:46:31.436Z,59.92
2022-11-28T04:48:58.927Z,58.46
2022-11-28T04:51:29.215Z,62.80
2022-11-28T04:54:22.430Z,61.70
2022-11-28T04:56:52.615Z,59.77
2022-11-28T04:59:19.806Z,61.82
2022-11-28T05:01:47.007Z,61.37
2022-11-28T05:04:14.602Z,59.63
2022-11-28T05:06:41.769Z,58.89
2022-11-28T05:09:12.431Z,58.89
2022-11-28T05:11:40.031Z,60.95
2022-11-28T05:14:07.291Z,63.47
2022-11-28T05:16:34.565Z,61.65
2022-11-28T05:19:02.185Z,60.08
2022-11-28T05:21:29.414Z,63.29
2022-11-28T05:23:56.632Z,60.52
2022-11-28T05:26:24.192Z,60.36
2022-11-28T05:28:51.648Z,58.43
2022-11-28T05:31:20.001Z,57.50
2022-11-28T05:33:47.636Z,57.41
2022-11-28T05:36:15.410Z,56.78
2022-11-28T05:38:42.948Z,56.67
2022-11-28T05:41:10.884Z,56.08
2022-11-28T05:43:38.041Z,56.87
2022-11-28T05:46:06.424Z,56.63
2022-11-28T05:48:33.994Z,56.76
2022-11-28T05:51:03.471Z,57.88
2022-11-28T05:53:30.755Z,57.72
2022-11-28T05:55:58.426Z,58.96
2022-11-28T05:58:25.681Z,57.79
2022-11-28T06:00:52.908Z,58.20
2022-11-28T06:03:20.393Z,57.47
2022-11-28T06:05:48.308Z,57.98
2022-11-28T06:08:16.043Z,60.60
2022-11-28T06:10:43.520Z,58.81
2022-11-28T06:13:10.762Z,60.34
2022-11-28T06:15:38.721Z,58.98
2022-11-28T06:18:06.273Z,58.60
2022-11-28T06:20:34.846Z,59.72
2022-11-28T06:23:01.998Z,59.68
2022-11-28T06:25:29.561Z,61.37
2022-11-28T06:27:56.774Z,59.96
2022-11-28T06:30:23.993Z,61.54
2022-11-28T06:32:51.450Z,61.27
2022-11-28T06:35:18.616Z,59.43
2022-11-28T06:37:45.891Z,59.94
2022-11-28T06:40:13.771Z,59.06
2022-11-28T06:42:40.993Z,58.66
2022-11-28T06:45:09.272Z,65.29
2022-11-28T06:47:36.738Z,60.99
2022-11-28T06:50:04.037Z,60.78
2022-11-28T06:52:31.254Z,59.70
2022-11-28T06:54:58.740Z,60.26
2022-11-28T06:57:26.043Z,58.54
2022-11-28T06:59:53.265Z,58.23
2022-11-28T07:02:20.787Z,59.88
2022-11-28T07:04:48.063Z,60.08
2022-11-28T07:07:16.775Z,59.02
2022-11-28T07:09:44.772Z,61.28
2022-11-28T07:12:12.228Z,59.93
2022-11-28T07:14:39.439Z,58.16
2022-11-28T07:17:07.017Z,58.84
2022-11-28T07:19:34.517Z,57.45
2022-11-28T07:22:01.756Z,60.60
2022-11-28T07:24:30.170Z,61.92
2022-11-28T07:26:57.395Z,60.31
2022-11-28T07:29:24.715Z,59.54
2022-11-28T07:31:52.227Z,58.15
2022-11-28T07:34:19.446Z,60.08
2022-11-28T07:36:46.628Z,61.70
2022-11-28T07:39:17.612Z,61.54
2022-11-28T07:41:44.942Z,61.61
2022-11-28T07:44:13.097Z,60.60
2022-11-28T07:46:40.704Z,62.69
2022-11-28T07:49:07.964Z,62.94
2022-11-28T07:51:35.189Z,66.51
2022-11-28T07:54:03.313Z,64.86
2022-11-28T07:56:57.131Z,66.97
2022-11-28T07:59:19.327Z,68.59
2022-11-28T08:01:46.552Z,64.95
2022-11-28T08:04:14.193Z,65.00
2022-11-28T08:06:41.878Z,65.77
2022-11-28T08:09:09.207Z,66.52
2022-11-28T08:11:36.730Z,67.29
2022-11-28T08:14:04.447Z,67.00
2022-11-28T08:16:31.854Z,65.67
2022-11-28T08:19:02.752Z,64.29
2022-11-28T08:21:31.027Z,63.16
2022-11-28T08:23:59.288Z,67.16
2022-11-28T08:26:30.389Z,64.00
2022-11-28T08:28:58.731Z,65.52
2022-11-28T08:31:27.190Z,66.57
2022-11-28T08:33:55.871Z,64.99
2022-11-28T08:36:23.108Z,66.23
2022-11-28T08:39:03.325Z,65.09
2022-11-28T08:41:37.286Z,64.66
2022-11-28T08:44:04.681Z,65.58
2022-11-28T08:46:32.620Z,65.59
2022-11-28T08:49:04.251Z,65.44
2022-11-28T08:51:31.911Z,66.87
2022-11-28T08:54:00.054Z,67.00
2022-11-28T08:56:27.800Z,64.50
2022-11-28T08:58:55.119Z,64.46
2022-11-28T09:01:23.656Z,64.53
2022-11-28T09:03:51.169Z,64.65
2022-11-28T09:06:18.576Z,63.10
2022-11-28T09:08:46.107Z,67.10
2022-11-28T09:11:14.654Z,64.94
2022-11-28T09:13:41.849Z,62.38
2022-11-28T09:16:09.484Z,61.18
2022-11-28T09:18:36.654Z,61.39
2022-11-28T09:21:04.992Z,64.34
2022-11-28T09:23:32.442Z,62.68
2022-11-28T09:25:59.710Z,60.31
2022-11-28T09:28:28.885Z,63.43
2022-11-28T09:30:59.816Z,62.67
2022-11-28T09:33:27.136Z,63.88
2022-11-28T09:35:55.535Z,63.49
2022-11-28T09:38:23.072Z,63.20
2022-11-28T09:40:50.389Z,61.34
2022-11-28T09:43:23.978Z,61.39
2022-11-28T09:45:51.441Z,60.84
2022-11-28T09:48:26.533Z,62.02
2022-11-28T09:50:55.598Z,64.56
2022-11-28T09:53:43.099Z,62.24
2022-11-28T09:56:14.810Z,60.22
2022-11-28T09:58:52.132Z,59.73
2022-11-28T10:01:26.168Z,61.08
2022-11-28T10:04:12.667Z,60.69
2022-11-28T10:06:45.910Z,59.51
2022-11-28T10:09:16.188Z,62.97
2022-11-28T10:11:43.452Z,58.88
2022-11-28T10:14:10.655Z,60.00
2022-11-28T10:16:46.848Z,60.55
2022-11-28T10:19:25.721Z,61.56
2022-11-28T10:22:03.075Z,59.67
2022-11-28T10:24:41.551Z,60.21
2022-11-28T10:27:09.798Z,60.41
2022-11-28T10:29:49.115Z,58.79
2022-11-28T10:32:17.298Z,62.37
2022-11-28T10:34:50.305Z,59.85
2022-11-28T10:37:19.957Z,58.05
2022-11-28T10:39:47.120Z,60.80
2022-11-28T10:42:32.517Z,60.96
2022-11-28T10:45:03.810Z,61.41
2022-11-28T10:47:49.615Z,60.42
2022-11-28T10:50:21.729Z,57.41
2022-11-28T10:52:51.861Z,56.51
2022-11-28T10:55:26.119Z,54.76
2022-11-28T10:58:02.552Z,57.19
2022-11-28T11:00:29.986Z,57.41
2022-11-28T11:02:57.874Z,57.89
2022-11-28T11:05:26.986Z,56.88
2022-11-28T11:07:55.859Z,56.68
2022-11-28T11:10:24.173Z,56.70
2022-11-28T11:12:52.661Z,57.63
2022-11-28T11:15:20.213Z,56.72
2022-11-28T11:17:47.486Z,54.72
2022-11-28T11:20:35.074Z,59.38
2022-11-28T11:23:10.403Z,59.16
2022-11-28T11:25:37.799Z,59.04
2022-11-28T11:28:05.244Z,56.66
2022-11-28T11:30:38.628Z,56.08
2022-11-28T11:33:07.262Z,58.51
2022-11-28T11:35:35.153Z,56.85
2022-11-28T11:38:17.835Z,56.52
2022-11-28T11:40:45.329Z,58.36
2022-11-28T11:43:24.825Z,58.67
2022-11-28T11:46:21.763Z,57.58
2022-11-28T11:48:50.600Z,55.56
2022-11-28T11:51:28.116Z,55.96
2022-11-28T11:54:05.255Z,56.52
2022-11-28T11:56:36.336Z,57.91
2022-11-28T11:59:05.395Z,55.99
2022-11-28T12:01:33.134Z,55.32
2022-11-28T12:04:17.891Z,57.11
2022-11-28T12:06:53.966Z,54.48
2022-11-28T12:09:26.546Z,54.33
2022-11-28T12:12:06.631Z,55.99
2022-11-28T12:14:34.826Z,54.96
2022-11-28T12:17:32.550Z,56.63
2022-11-28T12:20:28.210Z,56.51
2022-11-28T12:23:15.816Z,56.93
2022-11-28T12:25:53.589Z,56.16
2022-11-28T12:28:41.025Z,52.59
2022-11-28T12:31:20.511Z,58.22
2022-11-28T12:33:52.282Z,57.06
2022-11-28T12:36:23.860Z,56.20
2022-11-28T12:38:57.373Z,56.40
2022-11-28T12:41:33.679Z,58.22
2022-11-28T12:44:03.931Z,55.87
2022-11-28T12:46:51.655Z,54.86
2022-11-28T12:49:18.849Z,54.76
2022-11-28T12:51:50.311Z,55.51
2022-11-28T12:54:17.468Z,56.66
2022-11-28T12:56:54.660Z,53.71
2022-11-28T12:59:37.540Z,55.95
2022-11-28T13:02:16.154Z,56.56
2022-11-28T13:05:02.747Z,56.37
2022-11-28T13:07:48.978Z,55.40
2022-11-28T13:10:34.862Z,59.44
2022-11-28T13:13:10.715Z,57.34
2022-11-28T13:15:41.292Z,57.00
2022-11-28T13:18:22.408Z,58.19
2022-11-28T13:20:53.950Z,58.08
2022-11-28T13:23:25.536Z,55.29
2022-11-28T13:26:04.720Z,54.82
2022-11-28T13:28:38.007Z,56.21
2022-11-28T13:31:25.247Z,54.21
2022-11-28T13:33:53.448Z,53.86
2022-11-28T13:39:17.102Z,55.04
2022-11-28T13:42:43.913Z,52.46
2022-11-28T13:44:59.750Z,52.45
2022-11-28T13:47:29.362Z,55.10
2022-11-28T13:50:16.785Z,52.80
2022-11-28T13:52:44.329Z,52.26
2022-11-28T13:55:30.379Z,51.36
2022-11-28T13:57:57.918Z,52.37
2022-11-28T14:00:25.353Z,53.51
2022-11-28T14:02:53.905Z,56.48
2022-11-28T14:05:34.506Z,53.32
2022-11-28T14:08:02.153Z,51.83
2022-11-28T14:10:29.443Z,51.58
2022-11-28T14:13:02.617Z,52.34
2022-11-28T14:15:37.057Z,52.16
2022-11-28T14:18:31.519Z,52.41
2022-11-28T14:21:18.355Z,51.91
2022-11-28T14:23:47.936Z,50.93
2022-11-28T14:26:32.131Z,52.85
2022-11-28T14:28:59.470Z,53.09
2022-11-28T14:31:31.446Z,50.89
2022-11-28T14:34:03.643Z,55.24
2022-11-28T14:36:33.947Z,52.92
2022-11-28T14:39:24.800Z,53.89
2022-11-28T14:42:04.404Z,53.88
2022-11-28T14:44:47.412Z,53.76
2022-11-28T14:47:21.427Z,58.45
2022-11-28T14:49:48.792Z,58.98
2022-11-28T14:52:37.774Z,57.43
2022-11-28T14:55:04.013Z,59.30
2022-11-28T14:57:36.103Z,55.59
2022-11-28T15:00:08.168Z,55.93
2022-11-28T15:02:52.886Z,57.52
2022-11-28T15:05:31.183Z,57.74
2022-11-28T15:08:11.018Z,55.55
2022-11-28T15:11:01.101Z,56.65
2022-11-28T15:13:33.140Z,56.04
2022-11-28T15:16:00.468Z,55.18
2022-11-28T15:18:28.459Z,55.38
2022-11-28T15:21:03.304Z,54.90
2022-11-28T15:23:32.475Z,57.55
2022-11-28T15:26:00.223Z,56.00
2022-11-28T15:28:28.928Z,55.83
2022-11-28T15:30:56.964Z,55.46
2022-11-28T15:33:25.337Z,55.04
2022-11-28T15:36:03.170Z,54.84
2022-11-28T15:38:30.810Z,56.69
2022-11-28T15:40:58.201Z,54.72
2022-11-28T15:43:25.661Z,53.78
2022-11-28T15:45:54.446Z,52.08
2022-11-28T15:48:39.039Z,52.23
2022-11-28T15:51:07.948Z,51.77
2022-11-28T15:53:40.053Z,55.17
2022-11-28T15:56:11.476Z,53.70
2022-11-28T15:58:39.126Z,53.32
2022-11-28T16:01:14.588Z,52.96
2022-11-28T16:03:48.295Z,52.26
2022-11-28T16:06:16.520Z,53.07
2022-11-28T16:08:54.518Z,51.44
2022-11-28T16:11:22.751Z,54.63
2022-11-28T16:13:50.665Z,54.22
2022-11-28T16:16:18.708Z,53.60
2022-11-28T16:18:46.964Z,53.07
2022-11-28T16:21:14.766Z,56.11
2022-11-28T16:23:42.176Z,54.68
2022-11-28T16:26:18.625Z,54.43
2022-11-28T16:28:55.884Z,54.85
2022-11-28T16:31:24.962Z,53.64
2022-11-28T16:33:52.800Z,52.73
2022-11-28T16:36:20.058Z,56.03
2022-11-28T16:38:48.245Z,55.71
2022-11-28T16:41:15.902Z,55.29
2022-11-28T16:43:45.678Z,55.27
2022-11-28T16:46:20.375Z,56.03
2022-11-28T16:48:49.183Z,57.37
2022-11-28T16:51:16.570Z,55.16
2022-11-28T16:53:55.191Z,58.96
2022-11-28T16:56:31.950Z,56.08
2022-11-28T16:59:03.620Z,55.96
2022-11-28T17:01:31.256Z,57.44
2022-11-28T17:03:59.062Z,54.89
2022-11-28T17:06:27.310Z,54.53
2022-11-28T17:08:55.580Z,54.51
2022-11-28T17:11:23.460Z,55.39
2022-11-28T17:13:51.726Z,58.70
2022-11-28T17:16:20.894Z,58.78
2022-11-28T17:18:48.344Z,56.31
2022-11-28T17:21:16.137Z,56.00
2022-11-28T17:23:43.680Z,56.65
2022-11-28T17:26:10.903Z,57.64
2022-11-28T17:28:38.320Z,54.86
2022-11-28T17:31:06.013Z,54.33
2022-11-28T17:33:33.308Z,53.62
2022-11-28T17:36:00.520Z,53.58
2022-11-28T17:38:29.927Z,51.81
2022-11-28T17:40:57.763Z,52.64
2022-11-28T17:43:24.987Z,53.18
2022-11-28T17:45:52.572Z,52.87
2022-11-28T17:48:20.006Z,55.10
2022-11-28T17:50:49.664Z,54.41
2022-11-28T17:53:18.417Z,54.45
2022-11-28T17:55:47.119Z,54.00
2022-11-28T17:58:17.372Z,57.84
2022-11-28T18:00:48.316Z,55.87
2022-11-28T18:03:16.203Z,56.57
2022-11-28T18:05:45.634Z,56.30
2022-11-28T18:08:17.920Z,57.70
2022-11-28T18:10:48.579Z,61.04
2022-11-28T18:13:17.519Z,56.55
2022-11-28T18:15:46.037Z,54.82
2022-11-28T18:18:13.840Z,55.90
2022-11-28T18:20:41.155Z,53.93
2022-11-28T18:23:09.750Z,53.64
2022-11-28T18:25:40.517Z,52.98
2022-11-28T18:28:07.921Z,53.77
2022-11-28T18:30:35.184Z,53.58
2022-11-28T18:33:02.641Z,55.54
2022-11-28T18:35:30.618Z,59.55
2022-11-28T18:37:58.099Z,55.54
2022-11-28T18:40:25.743Z,52.99
2022-11-28T18:42:53.247Z,56.71
2022-11-28T18:45:21.044Z,55.81
2022-11-28T18:47:48.660Z,55.52
2022-11-28T18:50:16.038Z,53.04
2022-11-28T18:52:43.396Z,52.85
2022-11-28T18:55:10.870Z,52.49
2022-11-28T18:57:38.475Z,52.95
2022-11-28T19:00:06.282Z,53.54
2022-11-28T19:02:33.806Z,52.49
2022-11-28T19:05:01.123Z,52.72
2022-11-28T19:07:28.418Z,54.51
2022-11-28T19:09:55.977Z,54.15
2022-11-28T19:12:23.460Z,53.72
2022-11-28T19:14:51.777Z,54.93
2022-11-28T19:17:19.558Z,55.61
2022-11-28T19:19:47.359Z,54.16
2022-11-28T19:22:14.994Z,53.96
2022-11-28T19:24:42.822Z,56.42
2022-11-28T19:27:14.242Z,57.10
2022-11-28T19:29:42.495Z,58.04
2022-11-28T19:32:10.404Z,59.14
2022-11-28T19:34:37.885Z,57.11
2022-11-28T19:37:05.253Z,56.86
2022-11-28T19:39:32.993Z,55.55
2022-11-28T19:42:04.009Z,54.53
2022-11-28T19:44:31.698Z,54.41
2022-11-28T19:47:00.987Z,53.42
2022-11-28T19:49:29.295Z,54.39
2022-11-28T19:51:56.998Z,54.24
2022-11-28T19:54:25.476Z,53.74
2022-11-28T19:56:53.576Z,53.74
2022-11-28T19:59:20.884Z,55.04
2022-11-28T20:01:50.066Z,54.90
2022-11-28T20:04:17.988Z,55.46
2022-11-28T20:06:45.540Z,53.97
2022-11-28T20:09:13.866Z,54.34
2022-11-28T20:11:41.814Z,55.41
2022-11-28T20:14:12.916Z,57.68
2022-11-28T20:16:40.894Z,56.71
2022-11-28T20:19:10.289Z,57.07
2022-11-28T20:21:37.742Z,58.57
2022-11-28T20:24:07.400Z,58.05
2022-11-28T20:26:39.068Z,61.62
2022-11-28T20:29:06.872Z,60.67
2022-11-28T20:31:35.655Z,61.65
2022-11-28T20:34:04.781Z,58.20
2022-11-28T20:36:32.725Z,57.78
2022-11-28T20:39:00.348Z,60.54
2022-11-28T20:41:28.105Z,60.33
2022-11-28T20:43:55.408Z,60.26
2022-11-28T20:46:23.745Z,66.01
2022-11-28T20:48:51.276Z,63.99
2022-11-28T20:51:20.665Z,65.17
2022-11-28T20:53:48.609Z,62.60
2022-11-28T20:56:17.682Z,62.88
2022-11-28T20:58:45.365Z,60.60
2022-11-28T21:01:17.132Z,63.50
2022-11-28T21:03:44.716Z,66.41
2022-11-28T21:06:12.142Z,62.84
2022-11-28T21:08:39.394Z,66.12
2022-11-28T21:11:07.666Z,63.72
2022-11-28T21:13:34.999Z,63.96
2022-11-28T21:16:09.554Z,66.45
2022-11-28T21:18:37.987Z,63.44
2022-11-28T21:21:15.565Z,60.83
2022-11-28T21:23:43.488Z,62.68
2022-11-28T21:26:14.918Z,62.52
2022-11-28T21:28:42.997Z,66.28
2022-11-28T21:31:14.348Z,64.37
2022-11-28T21:33:41.615Z,62.28
2022-11-28T21:36:09.430Z,61.70
2022-11-28T21:38:36.605Z,63.00
2022-11-28T21:41:03.874Z,62.33
2022-11-28T21:43:32.128Z,61.57
2022-11-28T21:46:03.559Z,61.03
2022-11-28T21:48:31.142Z,62.46
2022-11-28T21:50:58.953Z,61.19
2022-11-28T21:53:26.409Z,61.42
2022-11-28T21:55:55.296Z,60.70
2022-11-28T21:58:26.670Z,63.74
2022-11-28T22:00:58.419Z,60.69
2022-11-28T22:03:26.835Z,59.91
2022-11-28T22:06:04.573Z,60.29
2022-11-28T22:08:33.696Z,60.32
2022-11-28T22:11:04.876Z,60.89
2022-11-28T22:13:32.961Z,60.70
2022-11-28T22:16:00.327Z,60.74
2022-11-28T22:18:31.143Z,62.22
2022-11-28T22:21:06.542Z,60.40
2022-11-28T22:23:39.441Z,60.99
2022-11-28T22:26:07.082Z,60.77
2022-11-28T22:28:35.587Z,60.83
2022-11-28T22:31:06.777Z,61.60
2022-11-28T22:33:34.875Z,61.28
2022-11-28T22:36:10.807Z,62.28
2022-11-28T22:38:38.719Z,63.32
2022-11-28T22:41:07.352Z,62.96
2022-11-28T22:43:34.772Z,62.76
2022-11-28T22:46:02.595Z,63.21
2022-11-28T22:48:30.618Z,62.96
2022-11-28T22:50:58.173Z,61.86
2022-11-28T22:53:25.803Z,63.96
2022-11-28T22:55:52.997Z,63.73
2022-11-28T22:58:20.429Z,63.29
2022-11-28T23:00:47.986Z,63.69
2022-11-28T23:03:15.528Z,65.18
2022-11-28T23:05:47.885Z,64.71
2022-11-28T23:08:17.857Z,63.50
2022-11-28T23:10:45.082Z,67.08
2022-11-28T23:13:12.306Z,69.71
2022-11-28T23:15:43.653Z,67.95
2022-11-28T23:18:13.424Z,65.50
2022-11-28T23:20:41.435Z,64.72
2022-11-28T23:23:08.653Z,66.01
2022-11-28T23:25:36.083Z,65.45
2022-11-28T23:28:03.582Z,64.03
2022-11-28T23:30:30.796Z,67.10
2022-11-28T23:32:58.049Z,67.39
2022-11-28T23:35:25.602Z,64.78
2022-11-28T23:37:52.808Z,64.93
2022-11-28T23:40:19.962Z,65.97
2022-11-28T23:42:47.508Z,67.07
2022-11-28T23:45:14.734Z,66.14
2022-11-28T23:47:41.932Z,69.79
2022-11-28T23:50:09.733Z,70.59
2022-11-28T23:52:36.891Z,67.57
2022-11-28T23:55:04.321Z,67.57
2022-11-28T23:57:31.818Z,65.11
